createdAt,value
2022-08-30T00:02:02.436Z,22.23
2022-08-30T00:05:05.710Z,22.33
2022-08-30T00:08:08.621Z,22.33
2022-08-30T00:11:14.864Z,22.39
2022-08-30T00:14:17.762Z,22.40
2022-08-30T00:17:20.708Z,22.33
2022-08-30T00:20:29.372Z,22.33
2022-08-30T00:23:32.838Z,22.26
2022-08-30T00:26:35.451Z,22.08
2022-08-30T00:29:38.316Z,22.18
2022-08-30T00:32:41.472Z,22.17
2022-08-30T00:35:44.797Z,22.02
2022-08-30T00:38:47.399Z,21.91
2022-08-30T00:41:50.792Z,21.84
2022-08-30T00:44:54.155Z,21.73
2022-08-30T00:47:57.364Z,21.73
2022-08-30T00:51:03.534Z,21.78
2022-08-30T00:54:07.988Z,21.73
2022-08-30T00:57:12.317Z,21.64
2022-08-30T01:00:17.016Z,21.64
2022-08-30T01:03:20.304Z,21.94
2022-08-30T01:06:23.543Z,21.97
2022-08-30T01:09:26.826Z,21.80
2022-08-30T01:12:30.303Z,21.71
2022-08-30T01:15:33.492Z,21.85
2022-08-30T01:18:37.325Z,21.79
2022-08-30T01:21:54.605Z,21.87
2022-08-30T01:24:59.591Z,21.96
2022-08-30T01:28:06.762Z,21.74
2022-08-30T01:31:09.703Z,21.81
2022-08-30T01:34:13.897Z,21.70
2022-08-30T01:37:22.010Z,21.61
2022-08-30T01:40:24.699Z,21.57
2022-08-30T01:43:27.801Z,21.53
2022-08-30T01:46:36.692Z,21.46
2022-08-30T01:49:40.527Z,21.59
2022-08-30T01:52:43.090Z,21.35
2022-08-30T01:55:46.246Z,21.20
2022-08-30T01:58:49.602Z,21.37
2022-08-30T02:01:52.564Z,21.36
2022-08-30T02:04:56.848Z,21.25
2022-08-30T02:08:01.413Z,20.99
2022-08-30T02:11:06.616Z,21.33
2022-08-30T02:14:09.321Z,21.26
2022-08-30T02:17:13.606Z,21.11
2022-08-30T02:20:16.226Z,21.03
2022-08-30T02:23:19.813Z,20.82
2022-08-30T02:26:23.265Z,21.06
2022-08-30T02:29:26.966Z,20.92
2022-08-30T02:32:29.599Z,20.87
2022-08-30T02:35:32.540Z,20.90
2022-08-30T02:38:35.839Z,20.92
2022-08-30T02:41:40.042Z,20.78
2022-08-30T02:44:42.936Z,20.73
2022-08-30T02:47:47.095Z,20.56
2022-08-30T02:50:52.250Z,20.76
2022-08-30T02:53:55.234Z,20.67
2022-08-30T02:56:57.830Z,21.00
2022-08-30T03:00:01.325Z,21.18
2022-08-30T03:03:04.328Z,21.05
2022-08-30T03:06:07.641Z,21.23
2022-08-30T03:09:10.666Z,20.94
2022-08-30T03:12:13.922Z,20.95
2022-08-30T03:15:17.347Z,20.93
2022-08-30T03:18:22.399Z,20.76
2022-08-30T03:21:25.600Z,20.75
2022-08-30T03:24:28.514Z,20.77
2022-08-30T03:27:31.546Z,20.60
2022-08-30T03:30:35.267Z,20.61
2022-08-30T03:33:40.462Z,20.64
2022-08-30T03:36:43.409Z,20.50
2022-08-30T03:39:46.415Z,20.36
2022-08-30T03:42:50.382Z,20.29
2022-08-30T03:45:53.116Z,20.72
2022-08-30T03:48:56.331Z,20.51
2022-08-30T03:51:59.081Z,20.34
2022-08-30T03:55:01.947Z,20.69
2022-08-30T03:58:04.594Z,20.74
2022-08-30T04:01:10.527Z,20.67
2022-08-30T04:04:20.532Z,20.52
2022-08-30T04:07:23.313Z,20.53
2022-08-30T04:10:26.530Z,20.30
2022-08-30T04:13:30.000Z,20.32
2022-08-30T04:16:33.006Z,20.44
2022-08-30T04:19:35.619Z,20.37
2022-08-30T04:22:38.549Z,20.46
2022-08-30T04:25:42.097Z,20.61
2022-08-30T04:28:45.031Z,20.63
2022-08-30T04:31:49.301Z,20.71
2022-08-30T04:34:57.530Z,20.97
2022-08-30T04:38:00.257Z,21.01
2022-08-30T04:41:03.890Z,21.21
2022-08-30T04:44:07.820Z,21.48
2022-08-30T04:47:12.123Z,21.43
2022-08-30T04:50:19.396Z,21.57
2022-08-30T04:53:22.299Z,21.37
2022-08-30T04:56:25.760Z,21.36
2022-08-30T04:59:29.585Z,21.80
2022-08-30T05:02:35.456Z,22.15
2022-08-30T05:05:41.946Z,22.40
2022-08-30T05:08:46.327Z,22.91
2022-08-30T05:11:50.086Z,23.02
2022-08-30T05:14:52.927Z,23.35
2022-08-30T05:17:55.810Z,23.41
2022-08-30T05:21:14.688Z,23.59
2022-08-30T05:24:17.769Z,23.43
2022-08-30T05:27:22.215Z,23.66
2022-08-30T05:30:27.281Z,24.17
2022-08-30T05:33:30.286Z,23.98
2022-08-30T05:36:41.116Z,24.18
2022-08-30T05:39:50.821Z,24.72
2022-08-30T05:42:54.888Z,24.68
2022-08-30T05:46:01.915Z,25.11
2022-08-30T05:49:07.141Z,24.92
2022-08-30T05:52:09.704Z,25.41
2022-08-30T05:55:13.309Z,25.55
2022-08-30T05:58:16.189Z,25.18
2022-08-30T06:01:28.463Z,26.09
2022-08-30T06:04:31.990Z,26.34
2022-08-30T06:07:37.688Z,26.50
2022-08-30T06:10:41.955Z,26.67
2022-08-30T06:13:44.555Z,25.99
2022-08-30T06:16:47.722Z,25.21
2022-08-30T06:19:50.350Z,25.21
2022-08-30T06:22:53.252Z,25.21
2022-08-30T06:25:55.964Z,24.75
2022-08-30T06:29:02.531Z,24.44
2022-08-30T06:32:05.164Z,24.75
2022-08-30T06:35:11.192Z,24.74
2022-08-30T06:38:13.912Z,25.04
2022-08-30T06:41:19.505Z,25.28
2022-08-30T06:44:22.071Z,25.35
2022-08-30T06:47:25.166Z,25.79
2022-08-30T06:50:28.516Z,25.60
2022-08-30T06:53:33.724Z,25.74
2022-08-30T06:56:37.193Z,26.20
2022-08-30T06:59:40.428Z,26.38
2022-08-30T07:02:43.687Z,26.95
2022-08-30T07:05:49.088Z,27.84
2022-08-30T07:08:56.202Z,27.19
2022-08-30T07:12:04.089Z,26.67
2022-08-30T07:15:08.003Z,26.95
2022-08-30T07:18:30.587Z,26.59
2022-08-30T07:21:37.319Z,26.79
2022-08-30T07:24:40.574Z,27.12
2022-08-30T07:27:43.590Z,27.44
2022-08-30T07:30:46.940Z,27.48
2022-08-30T07:33:50.035Z,28.07
2022-08-30T07:36:55.482Z,27.06
2022-08-30T07:39:58.141Z,27.45
2022-08-30T07:43:02.360Z,27.64
2022-08-30T07:46:07.485Z,28.27
2022-08-30T07:49:11.869Z,28.08
2022-08-30T07:52:14.529Z,29.08
2022-08-30T07:55:18.366Z,29.92
2022-08-30T07:58:21.945Z,28.67
2022-08-30T08:01:25.348Z,28.51
2022-08-30T08:04:28.851Z,29.55
2022-08-30T08:07:32.292Z,29.75
2022-08-30T08:10:37.840Z,29.39
2022-08-30T08:13:52.823Z,30.39
2022-08-30T08:16:57.917Z,29.97
2022-08-30T08:20:00.828Z,29.29
2022-08-30T08:23:04.846Z,29.37
2022-08-30T08:26:10.172Z,30.13
2022-08-30T08:29:13.438Z,29.77
2022-08-30T08:32:16.494Z,30.44
2022-08-30T08:35:20.381Z,29.38
2022-08-30T08:38:24.282Z,29.21
2022-08-30T08:41:52.979Z,29.02
2022-08-30T08:45:12.100Z,29.63
2022-08-30T08:49:00.023Z,30.42
2022-08-30T08:52:27.295Z,31.25
2022-08-30T08:55:30.632Z,32.54
2022-08-30T08:58:54.983Z,31.74
2022-08-30T09:02:03.476Z,31.77
2022-08-30T09:05:11.542Z,32.40
2022-08-30T09:08:20.165Z,30.97
2022-08-30T09:11:32.816Z,29.76
2022-08-30T09:14:44.219Z,29.46
2022-08-30T09:18:18.924Z,29.50
2022-08-30T09:21:27.751Z,29.24
2022-08-30T09:24:45.295Z,28.77
2022-08-30T09:27:50.434Z,29.28
2022-08-30T09:31:20.088Z,30.46
2022-08-30T09:34:25.653Z,32.23
2022-08-30T09:37:32.676Z,32.17
2022-08-30T09:40:42.104Z,30.97
2022-08-30T09:43:44.868Z,31.42
2022-08-30T09:46:52.181Z,30.84
2022-08-30T09:50:25.270Z,31.05
2022-08-30T09:53:34.634Z,32.05
2022-08-30T09:56:52.162Z,32.00
2022-08-30T10:00:31.514Z,32.01
2022-08-30T10:03:49.844Z,32.47
2022-08-30T10:07:28.910Z,31.54
2022-08-30T10:11:19.787Z,33.01
2022-08-30T10:14:45.421Z,32.58
2022-08-30T10:17:56.781Z,32.69
2022-08-30T10:21:19.764Z,33.51
2022-08-30T10:24:43.974Z,31.80
2022-08-30T10:28:11.623Z,32.33
2022-08-30T10:31:56.600Z,33.19
2022-08-30T10:35:17.467Z,32.65
2022-08-30T10:38:32.812Z,31.87
2022-08-30T10:42:17.711Z,31.93
2022-08-30T10:45:22.245Z,29.90
2022-08-30T10:48:35.694Z,31.30
2022-08-30T10:52:01.425Z,32.03
2022-08-30T10:55:08.553Z,32.96
2022-08-30T10:58:16.458Z,32.64
2022-08-30T11:01:31.497Z,30.17
2022-08-30T11:05:05.839Z,31.59
2022-08-30T11:08:46.189Z,30.96
2022-08-30T11:12:00.554Z,31.13
2022-08-30T11:15:25.199Z,31.92
2022-08-30T11:18:34.787Z,32.88
2022-08-30T11:21:43.061Z,31.55
2022-08-30T11:25:15.268Z,31.05
2022-08-30T11:28:39.225Z,30.09
2022-08-30T11:31:43.635Z,31.67
2022-08-30T11:34:58.032Z,30.69
2022-08-30T11:38:13.804Z,31.98
2022-08-30T11:41:43.166Z,31.24
2022-08-30T11:44:50.288Z,32.15
2022-08-30T11:47:59.448Z,31.45
2022-08-30T11:51:35.081Z,30.60
2022-08-30T11:55:02.769Z,31.05
2022-08-30T11:58:44.220Z,31.32
2022-08-30T12:01:55.044Z,30.72
2022-08-30T12:04:59.709Z,30.85
2022-08-30T12:08:09.906Z,30.55
2022-08-30T12:11:13.874Z,30.58
2022-08-30T12:14:41.483Z,32.46
2022-08-30T12:18:17.939Z,31.81
2022-08-30T12:21:22.224Z,31.18
2022-08-30T12:24:43.631Z,30.93
2022-08-30T12:27:47.647Z,30.46
2022-08-30T12:30:52.171Z,29.73
2022-08-30T12:34:01.679Z,29.29
2022-08-30T12:37:27.126Z,29.13
2022-08-30T12:40:35.153Z,29.54
2022-08-30T12:43:47.653Z,29.63
2022-08-30T12:46:59.956Z,29.58
2022-08-30T12:50:05.772Z,30.41
2022-08-30T12:53:13.934Z,30.68
2022-08-30T12:56:35.063Z,30.56
2022-08-30T12:59:56.734Z,28.96
2022-08-30T13:03:28.045Z,29.37
2022-08-30T13:06:53.131Z,30.18
2022-08-30T13:10:04.698Z,30.20
2022-08-30T13:13:07.504Z,30.25
2022-08-30T13:16:13.367Z,30.24
2022-08-30T13:19:29.466Z,30.15
2022-08-30T13:22:36.294Z,29.78
2022-08-30T13:25:40.210Z,30.27
2022-08-30T13:28:49.659Z,29.91
2022-08-30T13:31:53.256Z,30.13
2022-08-30T13:34:56.557Z,29.77
2022-08-30T13:38:01.802Z,29.48
2022-08-30T13:41:04.789Z,29.66
2022-08-30T13:44:11.283Z,29.87
2022-08-30T13:47:32.864Z,29.55
2022-08-30T13:50:36.185Z,29.28
2022-08-30T13:53:54.851Z,29.38
2022-08-30T13:57:00.462Z,29.74
2022-08-30T14:00:12.116Z,29.76
2022-08-30T14:03:16.079Z,30.15
2022-08-30T14:06:33.548Z,30.22
2022-08-30T14:09:39.846Z,29.13
2022-08-30T14:13:08.076Z,28.93
2022-08-30T14:19:31.167Z,29.23
2022-08-30T14:22:33.746Z,29.48
2022-08-30T14:25:37.299Z,29.48
2022-08-30T14:28:40.021Z,29.56
2022-08-30T14:31:44.752Z,29.41
2022-08-30T14:34:50.223Z,29.20
2022-08-30T14:37:54.897Z,29.25
2022-08-30T14:41:11.499Z,29.20
2022-08-30T14:44:19.177Z,29.50
2022-08-30T14:47:26.790Z,29.35
2022-08-30T14:50:32.859Z,29.24
2022-08-30T14:53:35.751Z,28.89
2022-08-30T14:56:42.393Z,28.81
2022-08-30T14:59:45.112Z,28.94
2022-08-30T15:02:49.811Z,28.99
2022-08-30T15:05:52.994Z,29.08
2022-08-30T15:08:56.448Z,29.06
2022-08-30T15:12:01.306Z,29.09
2022-08-30T15:15:06.131Z,28.94
2022-08-30T15:18:09.321Z,28.98
2022-08-30T15:21:12.572Z,29.07
2022-08-30T15:24:19.158Z,28.75
2022-08-30T15:27:35.223Z,28.41
2022-08-30T15:30:42.717Z,28.53
2022-08-30T15:33:45.991Z,28.56
2022-08-30T15:36:49.357Z,28.24
2022-08-30T15:39:53.919Z,28.29
2022-08-30T15:42:56.594Z,28.19
2022-08-30T15:46:13.785Z,28.26
2022-08-30T15:49:20.857Z,28.33
2022-08-30T15:52:25.273Z,28.10
2022-08-30T15:55:28.833Z,28.22
2022-08-30T15:58:33.409Z,28.22
2022-08-30T16:01:36.681Z,28.09
2022-08-30T16:04:40.183Z,28.11
2022-08-30T16:07:46.699Z,28.12
2022-08-30T16:10:52.008Z,28.18
2022-08-30T16:13:56.251Z,27.98
2022-08-30T16:16:59.769Z,27.97
2022-08-30T16:20:02.618Z,27.87
2022-08-30T16:23:06.305Z,27.93
2022-08-30T16:26:14.635Z,27.99
2022-08-30T16:29:21.124Z,27.66
2022-08-30T16:32:24.240Z,27.68
2022-08-30T16:35:27.279Z,27.77
2022-08-30T16:38:30.266Z,27.58
2022-08-30T16:41:33.433Z,27.58
2022-08-30T16:44:36.289Z,27.57
2022-08-30T16:47:39.359Z,27.57
2022-08-30T16:50:45.619Z,27.49
2022-08-30T16:53:49.552Z,27.47
2022-08-30T16:56:56.309Z,27.45
2022-08-30T17:00:00.134Z,27.37
2022-08-30T17:03:03.221Z,27.29
2022-08-30T17:06:07.039Z,27.23
2022-08-30T17:09:10.955Z,27.23
2022-08-30T17:12:14.995Z,27.23
2022-08-30T17:15:20.270Z,26.99
2022-08-30T17:18:23.317Z,26.87
2022-08-30T17:21:26.480Z,26.86
2022-08-30T17:24:30.623Z,26.70
2022-08-30T17:27:34.694Z,26.66
2022-08-30T17:30:40.167Z,26.63
2022-08-30T17:33:45.586Z,26.50
2022-08-30T17:36:51.277Z,26.33
2022-08-30T17:39:54.234Z,26.32
2022-08-30T17:42:57.924Z,26.32
2022-08-30T17:46:06.030Z,26.22
2022-08-30T17:49:10.661Z,26.29
2022-08-30T17:52:14.563Z,26.36
2022-08-30T17:55:17.776Z,26.41
2022-08-30T17:58:21.870Z,26.37
2022-08-30T18:01:28.111Z,26.33
2022-08-30T18:04:31.751Z,26.22
2022-08-30T18:07:35.219Z,26.13
2022-08-30T18:10:38.844Z,26.12
2022-08-30T18:13:41.542Z,25.93
2022-08-30T18:16:53.339Z,25.79
2022-08-30T18:19:57.761Z,25.90
2022-08-30T18:23:00.881Z,25.82
2022-08-30T18:26:04.565Z,25.74
2022-08-30T18:29:08.524Z,25.68
2022-08-30T18:32:13.338Z,25.56
2022-08-30T18:35:17.778Z,25.57
2022-08-30T18:38:23.641Z,25.55
2022-08-30T18:41:28.362Z,25.50
2022-08-30T18:44:33.613Z,25.42
2022-08-30T18:47:37.537Z,25.39
2022-08-30T18:50:44.021Z,25.32
2022-08-30T18:53:48.641Z,25.40
2022-08-30T18:56:51.730Z,25.33
2022-08-30T18:59:54.998Z,25.18
2022-08-30T19:02:58.090Z,25.05
2022-08-30T19:06:03.776Z,25.03
2022-08-30T19:09:09.066Z,25.07
2022-08-30T19:12:13.284Z,25.04
2022-08-30T19:15:16.713Z,25.12
2022-08-30T19:18:20.754Z,25.07
2022-08-30T19:21:23.821Z,24.95
2022-08-30T19:24:26.701Z,24.98
2022-08-30T19:27:37.331Z,24.76
2022-08-30T19:30:43.615Z,24.59
2022-08-30T19:33:47.913Z,24.63
2022-08-30T19:36:50.880Z,24.43
2022-08-30T19:39:55.511Z,24.45
2022-08-30T19:43:05.198Z,24.42
2022-08-30T19:46:08.505Z,24.43
2022-08-30T19:49:13.924Z,24.28
2022-08-30T19:52:18.079Z,24.26
2022-08-30T19:55:28.337Z,24.28
2022-08-30T19:58:32.931Z,24.28
2022-08-30T20:01:39.473Z,24.21
2022-08-30T20:04:42.731Z,24.20
2022-08-30T20:07:45.479Z,24.08
2022-08-30T20:10:49.594Z,24.04
2022-08-30T20:13:56.482Z,24.00
2022-08-30T20:17:02.387Z,24.02
2022-08-30T20:20:07.654Z,24.12
2022-08-30T20:23:14.672Z,23.58
2022-08-30T20:26:22.851Z,23.62
2022-08-30T20:29:38.032Z,23.60
2022-08-30T20:32:46.791Z,23.58
2022-08-30T20:35:51.427Z,23.36
2022-08-30T20:39:19.900Z,23.40
2022-08-30T20:42:25.617Z,23.46
2022-08-30T20:45:30.892Z,23.42
2022-08-30T20:48:34.219Z,23.40
2022-08-30T20:51:36.760Z,23.43
2022-08-30T20:54:43.234Z,23.40
2022-08-30T20:57:45.938Z,23.39
2022-08-30T21:00:53.581Z,23.32
2022-08-30T21:03:56.199Z,23.16
2022-08-30T21:07:00.208Z,23.05
2022-08-30T21:10:03.947Z,23.11
2022-08-30T21:13:07.626Z,23.19
2022-08-30T21:16:12.309Z,23.12
2022-08-30T21:19:15.434Z,23.21
2022-08-30T21:22:18.059Z,23.23
2022-08-30T21:25:21.664Z,23.17
2022-08-30T21:28:24.196Z,23.07
2022-08-30T21:31:28.820Z,23.04
2022-08-30T21:34:51.735Z,23.12
2022-08-30T21:37:54.744Z,22.96
2022-08-30T21:40:57.245Z,22.96
2022-08-30T21:44:02.549Z,22.90
2022-08-30T21:47:06.088Z,22.86
2022-08-30T21:50:09.334Z,22.86
2022-08-30T21:53:12.090Z,22.85
2022-08-30T21:56:22.235Z,22.68
2022-08-30T21:59:24.921Z,22.71
2022-08-30T22:02:29.322Z,22.64
2022-08-30T22:05:32.236Z,22.57
2022-08-30T22:08:35.092Z,22.58
2022-08-30T22:11:38.058Z,22.52
2022-08-30T22:14:40.923Z,22.47
2022-08-30T22:17:44.727Z,22.45
2022-08-30T22:20:47.353Z,22.49
2022-08-30T22:23:51.219Z,22.47
2022-08-30T22:26:53.933Z,22.52
2022-08-30T22:29:59.604Z,22.49
2022-08-30T22:33:02.722Z,22.59
2022-08-30T22:36:15.341Z,22.33
2022-08-30T22:39:18.234Z,22.41
2022-08-30T22:42:21.101Z,22.28
2022-08-30T22:45:23.719Z,22.37
2022-08-30T22:48:26.662Z,22.22
2022-08-30T22:51:29.709Z,22.27
2022-08-30T22:54:33.194Z,22.12
2022-08-30T22:57:37.262Z,22.00
2022-08-30T23:00:42.932Z,22.03
2022-08-30T23:03:58.512Z,22.21
2022-08-30T23:07:01.619Z,22.11
2022-08-30T23:10:06.412Z,21.89
2022-08-30T23:13:10.571Z,21.82
2022-08-30T23:16:14.597Z,21.86
2022-08-30T23:19:18.179Z,21.86
2022-08-30T23:22:20.735Z,21.89
2022-08-30T23:25:44.642Z,21.94
2022-08-30T23:29:05.934Z,21.90
2022-08-30T23:32:28.214Z,21.87
2022-08-30T23:35:49.444Z,21.92
2022-08-30T23:39:11.051Z,21.94
2022-08-30T23:42:32.127Z,21.89
2022-08-30T23:45:53.504Z,21.80
2022-08-30T23:49:15.347Z,21.84
2022-08-30T23:52:36.862Z,21.81
2022-08-30T23:55:58.829Z,21.90
2022-08-30T23:59:20.252Z,21.72
